createdAt,value
2019-04-12T00:00:46.675Z,4.25
2019-04-12T00:01:37.666Z,8.85
2019-04-12T00:02:17.162Z,6.50
2019-04-12T00:02:50.771Z,6.12
2019-04-12T00:03:24.466Z,4.28
2019-04-12T00:03:58.732Z,5.90
2019-04-12T00:04:33.420Z,5.97
2019-04-12T00:05:08.126Z,6.90
2019-04-12T00:05:41.776Z,5.78
2019-04-12T00:06:15.255Z,5.37
2019-04-12T00:06:48.761Z,6.12
2019-04-12T00:07:22.338Z,5.40
2019-04-12T00:07:55.874Z,5.58
2019-04-12T00:08:30.934Z,5.87
2019-04-12T00:09:07.190Z,5.28
2019-04-12T00:09:41.845Z,7.78
2019-04-12T00:10:16.373Z,4.47
2019-04-12T00:10:49.961Z,6.80
2019-04-12T00:11:23.495Z,8.00
2019-04-12T00:11:57.069Z,4.47
2019-04-12T00:12:30.646Z,7.40
2019-04-12T00:13:04.213Z,9.00
2019-04-12T00:13:37.713Z,6.70
2019-04-12T00:14:11.237Z,5.87
2019-04-12T00:14:45.191Z,6.90
2019-04-12T00:15:18.792Z,6.75
2019-04-12T00:15:52.276Z,5.40
2019-04-12T00:16:26.005Z,4.95
2019-04-12T00:16:59.809Z,7.17
2019-04-12T00:17:33.688Z,8.60
2019-04-12T00:18:07.206Z,6.95
2019-04-12T00:18:42.958Z,6.30
2019-04-12T00:19:16.197Z,7.75
2019-04-12T00:19:49.742Z,6.10
2019-04-12T00:20:23.270Z,5.20
2019-04-12T00:20:56.799Z,5.47
2019-04-12T00:21:30.257Z,7.65
2019-04-12T00:22:04.092Z,6.37
2019-04-12T00:22:37.736Z,7.37
2019-04-12T00:23:11.268Z,5.28
2019-04-12T00:23:45.714Z,5.62
2019-04-12T00:24:20.112Z,7.85
2019-04-12T00:24:53.783Z,6.20
2019-04-12T00:25:27.900Z,5.83
2019-04-12T00:26:01.490Z,7.95
2019-04-12T00:26:35.124Z,9.23
2019-04-12T00:27:08.793Z,6.95
2019-04-12T00:27:42.374Z,6.22
2019-04-12T00:28:19.150Z,6.22
2019-04-12T00:28:51.301Z,6.90
2019-04-12T00:29:24.968Z,6.22
2019-04-12T00:29:58.914Z,6.58
2019-04-12T00:30:32.819Z,8.88
2019-04-12T00:31:06.477Z,7.87
2019-04-12T00:31:40.280Z,6.55
2019-04-12T00:32:13.753Z,6.30
2019-04-12T00:32:49.133Z,7.80
2019-04-12T00:33:22.951Z,6.47
2019-04-12T00:33:56.863Z,8.45
2019-04-12T00:34:30.389Z,7.12
2019-04-12T00:35:04.284Z,5.62
2019-04-12T00:35:37.869Z,7.10
2019-04-12T00:36:11.570Z,8.13
2019-04-12T00:36:48.104Z,10.95
2019-04-12T00:37:24.097Z,5.95
2019-04-12T00:37:57.026Z,7.90
2019-04-12T00:38:30.552Z,6.17
2019-04-12T00:39:06.079Z,9.90
2019-04-12T00:39:39.625Z,10.43
2019-04-12T00:40:13.370Z,8.90
2019-04-12T00:40:46.958Z,9.10
2019-04-12T00:41:20.666Z,12.18
2019-04-12T00:41:54.267Z,7.00
2019-04-12T00:42:27.852Z,10.23
2019-04-12T00:43:03.129Z,10.93
2019-04-12T00:43:36.670Z,7.25
2019-04-12T00:44:10.669Z,8.05
2019-04-12T00:44:44.524Z,8.88
2019-04-12T00:45:18.224Z,9.75
2019-04-12T00:45:52.047Z,7.83
2019-04-12T00:46:25.847Z,6.67
2019-04-12T00:47:04.430Z,8.75
2019-04-12T00:47:40.255Z,7.95
2019-04-12T00:48:13.322Z,8.65
2019-04-12T00:48:46.883Z,11.33
2019-04-12T00:49:20.493Z,9.33
2019-04-12T00:49:54.107Z,7.92
2019-04-12T00:50:27.734Z,8.70
2019-04-12T00:51:01.463Z,10.85
2019-04-12T00:51:35.059Z,7.83
2019-04-12T00:52:13.951Z,6.83
2019-04-12T00:52:44.626Z,8.88
2019-04-12T00:53:18.197Z,9.13
2019-04-12T00:53:51.771Z,11.30
2019-04-12T00:54:25.308Z,8.65
2019-04-12T00:54:58.878Z,8.95
2019-04-12T00:55:32.442Z,8.25
2019-04-12T00:56:05.976Z,8.65
2019-04-12T00:56:39.502Z,11.75
2019-04-12T00:57:15.401Z,10.23
2019-04-12T00:57:48.430Z,9.38
2019-04-12T00:58:21.948Z,8.55
2019-04-12T00:58:55.458Z,10.13
2019-04-12T00:59:29.025Z,8.70
2019-04-12T01:00:02.656Z,10.20
2019-04-12T01:00:55.414Z,6.87
2019-04-12T01:01:47.461Z,7.15
2019-04-12T01:02:39.802Z,8.95
2019-04-12T01:03:14.029Z,7.87
2019-04-12T01:03:52.004Z,8.78
2019-04-12T01:04:30.107Z,8.70
2019-04-12T01:05:06.647Z,9.78
2019-04-12T01:05:40.265Z,10.72
2019-04-12T01:06:15.821Z,9.08
2019-04-12T01:06:49.150Z,8.68
2019-04-12T01:07:22.934Z,10.40
2019-04-12T01:08:10.342Z,10.70
2019-04-12T01:08:43.876Z,7.85
2019-04-12T01:09:22.142Z,8.65
2019-04-12T01:09:53.963Z,11.22
2019-04-12T01:10:28.038Z,10.68
2019-04-12T01:11:06.878Z,10.82
2019-04-12T01:11:40.343Z,8.55
2019-04-12T01:12:13.887Z,8.30
2019-04-12T01:12:47.459Z,8.95
2019-04-12T01:13:20.993Z,8.63
2019-04-12T01:13:57.187Z,8.70
2019-04-12T01:14:29.839Z,8.85
2019-04-12T01:15:03.542Z,7.70
2019-04-12T01:15:37.961Z,9.50
2019-04-12T01:16:11.506Z,7.50
2019-04-12T01:16:47.926Z,8.25
2019-04-12T01:17:21.503Z,7.45
2019-04-12T01:17:55.058Z,9.20
2019-04-12T01:18:30.184Z,9.00
2019-04-12T01:19:03.870Z,9.78
2019-04-12T01:19:37.392Z,9.50
2019-04-12T01:20:10.909Z,10.25
2019-04-12T01:20:45.532Z,8.90
2019-04-12T01:21:19.632Z,7.40
2019-04-12T01:21:53.129Z,7.65
2019-04-12T01:22:28.071Z,8.75
2019-04-12T01:23:02.404Z,9.30
2019-04-12T01:23:36.399Z,7.72
2019-04-12T01:24:10.803Z,7.83
2019-04-12T01:24:45.129Z,7.60
2019-04-12T01:25:18.679Z,8.20
2019-04-12T01:25:52.222Z,10.23
2019-04-12T01:26:25.746Z,8.50
2019-04-12T01:26:59.267Z,9.50
2019-04-12T01:27:32.762Z,9.23
2019-04-12T01:28:06.496Z,10.45
2019-04-12T01:28:39.980Z,8.10
2019-04-12T01:29:13.525Z,8.53
2019-04-12T01:29:48.684Z,9.53
2019-04-12T01:30:22.398Z,8.58
2019-04-12T01:30:55.854Z,13.85
2019-04-12T01:31:29.366Z,11.28
2019-04-12T01:32:02.857Z,10.60
2019-04-12T01:32:36.352Z,11.70
2019-04-12T01:33:09.833Z,8.33
2019-04-12T01:33:43.430Z,9.98
2019-04-12T01:34:16.925Z,8.43
2019-04-12T01:34:50.352Z,9.95
2019-04-12T01:35:23.845Z,10.93
2019-04-12T01:35:57.486Z,11.00
2019-04-12T01:36:30.991Z,8.83
2019-04-12T01:37:04.479Z,9.60
2019-04-12T01:37:37.975Z,9.48
2019-04-12T01:38:11.467Z,9.05
2019-04-12T01:38:44.969Z,14.45
2019-04-12T01:39:18.483Z,9.60
2019-04-12T01:39:51.974Z,9.50
2019-04-12T01:40:25.481Z,10.98
2019-04-12T01:40:59.091Z,9.45
2019-04-12T01:41:32.565Z,11.28
2019-04-12T01:42:06.074Z,12.15
2019-04-12T01:42:39.647Z,13.53
2019-04-12T01:43:13.130Z,8.38
2019-04-12T01:43:46.627Z,7.87
2019-04-12T01:44:20.137Z,10.88
2019-04-12T01:44:53.835Z,8.18
2019-04-12T01:45:27.327Z,8.98
2019-04-12T01:46:00.854Z,11.08
2019-04-12T01:46:34.549Z,10.55
2019-04-12T01:47:08.088Z,9.60
2019-04-12T01:47:41.585Z,10.23
2019-04-12T01:48:15.154Z,11.10
2019-04-12T01:48:48.673Z,10.90
2019-04-12T01:49:22.181Z,8.98
2019-04-12T01:49:55.729Z,11.30
2019-04-12T01:50:29.219Z,12.53
2019-04-12T01:51:02.733Z,9.55
2019-04-12T01:51:36.256Z,10.05
2019-04-12T01:52:09.770Z,9.55
2019-04-12T01:52:43.377Z,10.45
2019-04-12T01:53:16.890Z,10.43
2019-04-12T01:53:50.383Z,13.35
2019-04-12T01:54:23.946Z,11.15
2019-04-12T01:55:08.447Z,10.82
2019-04-12T01:55:32.642Z,10.50
2019-04-12T01:56:06.135Z,11.53
2019-04-12T01:56:39.647Z,11.28
2019-04-12T01:57:13.149Z,10.48
2019-04-12T01:57:46.625Z,9.93
2019-04-12T01:58:20.115Z,18.75
2019-04-12T01:58:53.597Z,10.53
2019-04-12T01:59:27.078Z,10.08
2019-04-12T02:00:00.614Z,10.80
2019-04-12T02:00:34.106Z,10.50
2019-04-12T02:01:07.587Z,11.45
2019-04-12T02:01:41.097Z,9.23
2019-04-12T02:02:14.598Z,12.50
2019-04-12T02:02:48.146Z,12.80
2019-04-12T02:03:21.642Z,14.68
2019-04-12T02:03:55.214Z,10.40
2019-04-12T02:04:28.794Z,11.28
2019-04-12T02:05:02.300Z,11.97
2019-04-12T02:05:35.792Z,13.75
2019-04-12T02:06:09.289Z,10.13
2019-04-12T02:06:42.950Z,11.20
2019-04-12T02:07:16.437Z,12.30
2019-04-12T02:07:49.962Z,12.55
2019-04-12T02:08:23.379Z,13.05
2019-04-12T02:08:56.870Z,15.05
2019-04-12T02:09:30.369Z,15.32
2019-04-12T02:10:04.636Z,11.83
2019-04-12T02:10:38.702Z,12.10
2019-04-12T02:11:12.189Z,10.72
2019-04-12T02:11:46.445Z,12.15
2019-04-12T02:12:19.933Z,14.90
2019-04-12T02:12:53.416Z,11.35
2019-04-12T02:13:26.901Z,9.80
2019-04-12T02:14:00.686Z,13.08
2019-04-12T02:14:34.170Z,11.85
2019-04-12T02:15:07.958Z,11.97
2019-04-12T02:15:41.457Z,14.98
2019-04-12T02:16:14.955Z,11.60
2019-04-12T02:16:49.382Z,11.63
2019-04-12T02:17:22.900Z,11.08
2019-04-12T02:17:56.395Z,11.50
2019-04-12T02:18:29.990Z,9.50
2019-04-12T02:19:03.526Z,11.18
2019-04-12T02:19:37.036Z,13.13
2019-04-12T02:20:10.556Z,11.78
2019-04-12T02:20:44.121Z,11.88
2019-04-12T02:21:17.921Z,11.20
2019-04-12T02:21:51.455Z,11.18
2019-04-12T02:22:24.984Z,13.28
2019-04-12T02:22:58.470Z,13.65
2019-04-12T02:23:31.977Z,13.55
2019-04-12T02:24:05.518Z,14.25
2019-04-12T02:24:39.031Z,13.25
2019-04-12T02:25:20.918Z,14.33
2019-04-12T02:25:47.745Z,13.38
2019-04-12T02:26:21.231Z,11.55
2019-04-12T02:26:54.752Z,10.90
2019-04-12T02:27:28.225Z,13.00
2019-04-12T02:28:01.716Z,11.38
2019-04-12T02:28:53.571Z,10.28
2019-04-12T02:29:27.086Z,13.03
2019-04-12T02:30:00.647Z,11.95
2019-04-12T02:30:35.369Z,12.00
2019-04-12T02:31:09.382Z,10.53
2019-04-12T02:32:01.945Z,11.10
2019-04-12T02:32:44.808Z,11.60
2019-04-12T02:33:18.303Z,13.90
2019-04-12T02:33:51.802Z,11.12
2019-04-12T02:34:25.354Z,12.18
2019-04-12T02:34:59.278Z,12.23
2019-04-12T02:35:37.909Z,10.35
2019-04-12T02:36:11.777Z,13.58
2019-04-12T02:36:45.531Z,14.05
2019-04-12T02:37:19.181Z,12.65
2019-04-12T02:37:52.695Z,15.35
2019-04-12T02:38:26.249Z,14.87
2019-04-12T02:38:59.743Z,10.70
2019-04-12T02:39:33.227Z,14.53
2019-04-12T02:40:06.931Z,14.33
2019-04-12T02:40:41.010Z,13.13
2019-04-12T02:41:15.719Z,11.88
2019-04-12T02:41:50.820Z,14.58
2019-04-12T02:42:24.626Z,14.43
2019-04-12T02:42:58.822Z,13.65
2019-04-12T02:43:32.306Z,15.55
2019-04-12T02:44:06.109Z,12.00
2019-04-12T02:44:39.924Z,13.18
2019-04-12T02:45:13.689Z,13.05
2019-04-12T02:45:48.878Z,15.58
2019-04-12T02:46:25.652Z,13.98
2019-04-12T02:47:19.337Z,14.05
2019-04-12T02:47:54.241Z,15.40
2019-04-12T02:48:57.681Z,13.35
2019-04-12T02:49:41.850Z,13.32
2019-04-12T02:50:43.825Z,11.97
2019-04-12T02:51:33.064Z,10.70
2019-04-12T02:52:17.123Z,12.78
2019-04-12T02:53:06.982Z,14.98
2019-04-12T02:53:52.851Z,11.85
2019-04-12T02:54:50.288Z,12.23
2019-04-12T02:55:37.738Z,10.32
2019-04-12T02:56:30.187Z,11.63
2019-04-12T02:57:11.608Z,12.93
2019-04-12T02:57:59.065Z,15.05
2019-04-12T02:58:46.355Z,11.83
2019-04-12T02:59:31.615Z,11.97
2019-04-12T03:00:08.534Z,13.48
2019-04-12T03:00:49.720Z,16.12
2019-04-12T03:01:23.915Z,13.80
2019-04-12T03:01:58.964Z,12.60
2019-04-12T03:02:34.478Z,12.37
2019-04-12T03:03:08.331Z,16.65
2019-04-12T03:03:42.409Z,13.30
2019-04-12T03:04:15.902Z,13.72
2019-04-12T03:04:49.804Z,10.70
2019-04-12T03:05:23.290Z,12.88
2019-04-12T03:05:56.776Z,15.05
2019-04-12T03:06:30.459Z,13.90
2019-04-12T03:07:04.096Z,13.35
2019-04-12T03:07:37.685Z,15.28
2019-04-12T03:08:11.166Z,14.20
2019-04-12T03:08:44.670Z,12.25
2019-04-12T03:09:19.635Z,14.23
2019-04-12T03:09:54.430Z,12.18
2019-04-12T03:10:28.210Z,11.20
2019-04-12T03:11:01.710Z,12.55
2019-04-12T03:11:36.828Z,14.35
2019-04-12T03:12:11.116Z,11.38
2019-04-12T03:12:45.161Z,13.78
2019-04-12T03:13:19.759Z,14.70
2019-04-12T03:13:54.870Z,13.65
2019-04-12T03:14:28.990Z,10.50
2019-04-12T03:15:03.901Z,12.82
2019-04-12T03:15:37.510Z,14.30
2019-04-12T03:16:11.330Z,11.85
2019-04-12T03:16:45.762Z,13.22
2019-04-12T03:17:19.261Z,12.28
2019-04-12T03:17:53.259Z,15.03
2019-04-12T03:18:26.786Z,12.85
2019-04-12T03:19:00.702Z,10.50
2019-04-12T03:19:34.503Z,13.50
2019-04-12T03:20:08.211Z,15.78
2019-04-12T03:20:41.731Z,10.53
2019-04-12T03:21:15.861Z,12.85
2019-04-12T03:21:49.686Z,13.58
2019-04-12T03:22:23.295Z,12.33
2019-04-12T03:22:57.861Z,17.02
2019-04-12T03:23:31.652Z,11.30
2019-04-12T03:24:05.447Z,14.15
2019-04-12T03:24:40.178Z,15.88
2019-04-12T03:25:14.099Z,12.28
2019-04-12T03:25:53.927Z,14.43
2019-04-12T03:26:25.056Z,14.73
2019-04-12T03:26:59.151Z,11.60
2019-04-12T03:27:32.791Z,12.82
2019-04-12T03:28:06.361Z,12.70
2019-04-12T03:28:40.004Z,11.63
2019-04-12T03:29:14.206Z,14.25
2019-04-12T03:29:47.719Z,12.03
2019-04-12T03:30:21.559Z,13.30
2019-04-12T03:30:55.657Z,11.30
2019-04-12T03:31:30.712Z,13.98
2019-04-12T03:32:04.640Z,13.13
2019-04-12T03:32:38.452Z,12.10
2019-04-12T03:33:12.809Z,12.82
2019-04-12T03:33:46.397Z,13.43
2019-04-12T03:34:19.961Z,12.45
2019-04-12T03:34:53.478Z,12.13
2019-04-12T03:35:27.354Z,11.75
2019-04-12T03:36:01.065Z,12.03
2019-04-12T03:36:34.562Z,11.57
2019-04-12T03:37:08.072Z,12.63
2019-04-12T03:37:41.565Z,12.75
2019-04-12T03:38:16.310Z,11.83
2019-04-12T03:38:49.806Z,10.45
2019-04-12T03:39:23.401Z,19.25
2019-04-12T03:39:57.203Z,8.93
2019-04-12T03:40:30.766Z,13.88
2019-04-12T03:41:04.309Z,11.65
2019-04-12T03:41:37.788Z,14.58
2019-04-12T03:42:11.656Z,15.30
2019-04-12T03:42:45.466Z,11.53
2019-04-12T03:43:19.015Z,13.25
2019-04-12T03:43:52.762Z,15.83
2019-04-12T03:44:26.252Z,11.93
2019-04-12T03:45:00.146Z,12.30
2019-04-12T03:45:33.738Z,17.12
2019-04-12T03:46:07.601Z,12.98
2019-04-12T03:46:41.260Z,11.65
2019-04-12T03:47:14.775Z,10.53
2019-04-12T03:47:48.584Z,14.60
2019-04-12T03:48:22.250Z,13.60
2019-04-12T03:48:56.185Z,11.05
2019-04-12T03:49:29.793Z,11.45
2019-04-12T03:50:03.323Z,11.78
2019-04-12T03:50:37.533Z,13.30
2019-04-12T03:51:11.133Z,11.15
2019-04-12T03:51:44.819Z,10.80
2019-04-12T03:52:18.564Z,11.12
2019-04-12T03:52:52.141Z,10.93
2019-04-12T03:53:26.948Z,14.75
2019-04-12T03:54:00.584Z,13.48
2019-04-12T03:54:34.266Z,15.18
2019-04-12T03:55:07.963Z,12.70
2019-04-12T03:55:41.520Z,10.50
2019-04-12T03:56:15.165Z,12.95
2019-04-12T03:56:48.881Z,11.65
2019-04-12T03:57:23.310Z,12.45
2019-04-12T03:57:57.234Z,13.88
2019-04-12T03:58:30.815Z,14.73
2019-04-12T03:59:19.891Z,12.30
2019-04-12T03:59:53.651Z,12.63
2019-04-12T04:00:28.319Z,11.85
2019-04-12T04:01:02.012Z,17.90
2019-04-12T04:01:35.577Z,14.13
2019-04-12T04:02:28.180Z,12.28
2019-04-12T04:03:01.698Z,12.10
2019-04-12T04:03:35.872Z,9.95
2019-04-12T04:04:09.362Z,13.43
2019-04-12T04:04:42.956Z,13.05
2019-04-12T04:05:16.482Z,14.03
2019-04-12T04:05:50.129Z,10.68
2019-04-12T04:06:23.667Z,11.45
2019-04-12T04:06:57.601Z,12.03
2019-04-12T04:07:31.085Z,10.65
2019-04-12T04:08:04.687Z,13.00
2019-04-12T04:08:38.220Z,13.08
2019-04-12T04:09:11.803Z,10.50
2019-04-12T04:09:45.698Z,14.90
2019-04-12T04:10:19.182Z,12.50
2019-04-12T04:10:53.090Z,10.60
2019-04-12T04:11:26.653Z,12.23
2019-04-12T04:12:03.243Z,9.13
2019-04-12T04:12:37.111Z,13.20
2019-04-12T04:13:10.651Z,14.68
2019-04-12T04:13:44.713Z,14.63
2019-04-12T04:14:19.759Z,12.40
2019-04-12T04:14:53.554Z,16.07
2019-04-12T04:15:27.242Z,18.20
2019-04-12T04:16:01.703Z,13.45
2019-04-12T04:16:37.162Z,14.65
2019-04-12T04:17:39.367Z,12.47
2019-04-12T04:18:17.389Z,10.85
2019-04-12T04:18:51.082Z,14.63
2019-04-12T04:19:27.098Z,14.15
2019-04-12T04:20:10.535Z,11.38
2019-04-12T04:21:15.385Z,11.55
2019-04-12T04:21:52.018Z,11.55
2019-04-12T04:22:25.677Z,15.53
2019-04-12T04:23:07.610Z,17.73
2019-04-12T04:23:46.973Z,13.93
2019-04-12T04:24:24.829Z,11.97
2019-04-12T04:25:00.868Z,12.30
2019-04-12T04:25:52.977Z,9.48
2019-04-12T04:26:34.350Z,12.75
2019-04-12T04:27:29.796Z,11.75
2019-04-12T04:28:16.768Z,10.60
2019-04-12T04:28:59.677Z,12.82
2019-04-12T04:29:58.935Z,11.10
2019-04-12T04:30:57.251Z,11.38
2019-04-12T04:31:39.935Z,9.75
2019-04-12T04:32:36.354Z,11.28
2019-04-12T04:33:09.959Z,11.08
2019-04-12T04:33:43.499Z,11.85
2019-04-12T04:34:17.343Z,11.73
2019-04-12T04:34:51.634Z,12.05
2019-04-12T04:35:25.168Z,12.28
2019-04-12T04:35:58.848Z,13.38
2019-04-12T04:36:33.002Z,12.50
2019-04-12T04:37:06.548Z,12.98
2019-04-12T04:37:41.514Z,12.53
2019-04-12T04:38:18.686Z,10.75
2019-04-12T04:38:52.413Z,10.72
2019-04-12T04:39:26.971Z,13.40
2019-04-12T04:40:00.797Z,13.32
2019-04-12T04:40:34.381Z,12.33
2019-04-12T04:41:08.457Z,17.15
2019-04-12T04:41:42.204Z,12.03
2019-04-12T04:42:17.044Z,9.65
2019-04-12T04:42:50.764Z,12.47
2019-04-12T04:43:24.355Z,12.65
2019-04-12T04:43:58.033Z,15.00
2019-04-12T04:44:31.858Z,13.08
2019-04-12T04:45:05.546Z,13.22
2019-04-12T04:45:39.043Z,11.70
2019-04-12T04:46:12.804Z,12.35
2019-04-12T04:46:46.413Z,9.98
2019-04-12T04:47:19.994Z,18.10
2019-04-12T04:47:53.749Z,13.62
2019-04-12T04:48:27.377Z,19.30
2019-04-12T04:49:01.285Z,12.58
2019-04-12T04:49:34.824Z,14.85
2019-04-12T04:50:08.472Z,13.80
2019-04-12T04:50:42.353Z,12.70
2019-04-12T04:51:15.879Z,9.98
2019-04-12T04:51:49.590Z,12.78
2019-04-12T04:52:23.617Z,12.98
2019-04-12T04:52:57.209Z,8.93
2019-04-12T04:53:30.716Z,13.22
2019-04-12T04:54:05.257Z,11.88
2019-04-12T04:54:38.762Z,15.40
2019-04-12T04:55:12.759Z,13.72
2019-04-12T04:55:46.630Z,13.03
2019-04-12T04:56:20.463Z,13.78
2019-04-12T04:56:53.977Z,10.40
2019-04-12T04:57:27.711Z,11.83
2019-04-12T04:58:01.256Z,11.08
2019-04-12T04:58:34.828Z,11.83
2019-04-12T04:59:08.443Z,11.12
2019-04-12T04:59:42.634Z,9.83
2019-04-12T05:00:16.308Z,11.63
2019-04-12T05:00:50.178Z,12.47
2019-04-12T05:01:24.053Z,15.08
2019-04-12T05:01:58.187Z,11.18
2019-04-12T05:02:31.762Z,10.98
2019-04-12T05:03:08.203Z,13.25
2019-04-12T05:03:40.865Z,13.22
2019-04-12T05:04:15.017Z,13.88
2019-04-12T05:04:48.569Z,11.65
2019-04-12T05:05:22.250Z,7.87
2019-04-12T05:05:55.905Z,9.43
2019-04-12T05:06:29.676Z,10.10
2019-04-12T05:07:03.678Z,14.00
2019-04-12T05:07:37.572Z,11.95
2019-04-12T05:08:11.355Z,13.95
2019-04-12T05:08:45.074Z,21.12
2019-04-12T05:09:18.813Z,12.30
2019-04-12T05:09:52.409Z,10.75
2019-04-12T05:10:26.429Z,10.50
2019-04-12T05:11:00.310Z,18.23
2019-04-12T05:11:33.974Z,10.93
2019-04-12T05:12:07.805Z,11.80
2019-04-12T05:12:41.804Z,12.28
2019-04-12T05:13:15.880Z,11.75
2019-04-12T05:13:49.663Z,12.90
2019-04-12T05:14:24.001Z,11.83
2019-04-12T05:14:57.885Z,14.35
2019-04-12T05:15:31.417Z,12.40
2019-04-12T05:16:05.656Z,12.25
2019-04-12T05:16:39.807Z,12.03
2019-04-12T05:17:14.287Z,12.20
2019-04-12T05:17:48.660Z,14.75
2019-04-12T05:18:22.517Z,11.33
2019-04-12T05:18:56.808Z,12.88
2019-04-12T05:19:30.784Z,13.05
2019-04-12T05:20:04.952Z,13.68
2019-04-12T05:20:40.087Z,12.15
2019-04-12T05:21:14.975Z,11.95
2019-04-12T05:21:49.773Z,13.15
2019-04-12T05:22:24.258Z,11.12
2019-04-12T05:22:59.665Z,12.20
2019-04-12T05:23:33.866Z,12.30
2019-04-12T05:24:09.217Z,14.07
2019-04-12T05:24:43.418Z,14.05
2019-04-12T05:25:18.513Z,15.10
2019-04-12T05:25:52.766Z,12.82
2019-04-12T05:26:26.930Z,13.25
2019-04-12T05:27:01.226Z,11.53
2019-04-12T05:27:36.330Z,10.82
2019-04-12T05:28:10.528Z,12.15
2019-04-12T05:28:45.189Z,12.88
2019-04-12T05:29:19.264Z,12.88
2019-04-12T05:29:53.326Z,10.80
2019-04-12T05:30:29.548Z,11.60
2019-04-12T05:31:05.912Z,11.28
2019-04-12T05:31:46.069Z,10.20
2019-04-12T05:32:21.297Z,12.47
2019-04-12T05:33:01.500Z,11.35
2019-04-12T05:33:42.299Z,9.35
2019-04-12T05:34:21.363Z,8.93
2019-04-12T05:34:57.929Z,11.28
2019-04-12T05:35:33.419Z,9.13
2019-04-12T05:36:08.337Z,10.23
2019-04-12T05:36:42.708Z,11.22
2019-04-12T05:37:18.661Z,8.53
2019-04-12T05:37:53.393Z,9.15
2019-04-12T05:38:27.955Z,9.38
2019-04-12T05:39:05.593Z,8.85
2019-04-12T05:39:41.512Z,12.15
2019-04-12T05:40:16.533Z,9.30
2019-04-12T05:40:54.771Z,8.38
2019-04-12T05:41:28.545Z,8.98
2019-04-12T05:42:02.912Z,9.28
2019-04-12T05:42:39.464Z,9.23
2019-04-12T05:43:14.790Z,10.85
2019-04-12T05:43:52.760Z,11.83
2019-04-12T05:44:28.817Z,7.97
2019-04-12T05:45:04.708Z,7.30
2019-04-12T05:45:54.140Z,7.83
2019-04-12T05:46:53.169Z,5.65
2019-04-12T05:47:40.814Z,9.13
2019-04-12T05:48:19.602Z,7.22
2019-04-12T05:49:01.788Z,9.35
2019-04-12T05:49:48.600Z,9.15
2019-04-12T05:50:26.788Z,9.53
2019-04-12T05:51:01.587Z,9.00
2019-04-12T05:51:35.415Z,6.97
2019-04-12T05:52:10.527Z,8.85
2019-04-12T05:52:46.101Z,8.23
2019-04-12T05:53:20.685Z,8.48
2019-04-12T05:53:56.655Z,7.55
2019-04-12T05:54:35.248Z,8.35
2019-04-12T05:55:13.250Z,10.10
2019-04-12T05:55:51.368Z,6.75
2019-04-12T05:56:24.952Z,6.85
2019-04-12T05:56:59.614Z,6.87
2019-04-12T05:57:34.299Z,8.73
2019-04-12T05:58:14.869Z,7.08
2019-04-12T05:58:54.024Z,7.42
2019-04-12T05:59:35.853Z,7.10
2019-04-12T06:00:18.771Z,5.60
2019-04-12T06:01:16.972Z,7.15
2019-04-12T06:02:06.676Z,5.70
2019-04-12T06:02:42.414Z,6.50
2019-04-12T06:03:16.939Z,4.85
2019-04-12T06:03:52.862Z,7.17
2019-04-12T06:04:29.590Z,6.75
2019-04-12T06:05:06.358Z,8.93
2019-04-12T06:05:43.616Z,5.45
2019-04-12T06:06:20.343Z,5.62
2019-04-12T06:06:55.653Z,4.42
2019-04-12T06:07:30.610Z,6.33
2019-04-12T06:08:08.002Z,7.78
2019-04-12T06:08:57.092Z,5.50
2019-04-12T06:09:23.389Z,5.55
2019-04-12T06:09:59.338Z,5.10
2019-04-12T06:10:38.942Z,7.62
2019-04-12T06:11:14.628Z,6.78
2019-04-12T06:11:50.808Z,5.30
2019-04-12T06:12:24.975Z,6.60
2019-04-12T06:12:59.624Z,7.80
2019-04-12T06:13:34.500Z,4.75
2019-04-12T06:14:13.127Z,6.97
2019-04-12T06:14:49.723Z,5.17
2019-04-12T06:15:30.279Z,8.10
2019-04-12T06:16:06.134Z,9.25
2019-04-12T06:16:40.168Z,6.90
2019-04-12T06:17:16.313Z,8.18
2019-04-12T06:17:50.381Z,12.30
2019-04-12T06:18:26.016Z,8.93
2019-04-12T06:19:00.608Z,6.35
2019-04-12T06:19:35.783Z,6.70
2019-04-12T06:20:28.576Z,5.58
2019-04-12T06:21:19.258Z,8.65
2019-04-12T06:22:15.370Z,8.00
2019-04-12T06:22:50.838Z,5.35
2019-04-12T06:23:25.442Z,5.90
2019-04-12T06:24:04.369Z,7.25
2019-04-12T06:24:39.453Z,6.47
2019-04-12T06:25:20.322Z,4.95
2019-04-12T06:26:04.594Z,6.05
2019-04-12T06:27:15.046Z,4.80
2019-04-12T06:27:50.763Z,3.65
2019-04-12T06:28:24.465Z,4.75
2019-04-12T06:28:59.152Z,7.05
2019-04-12T06:29:33.426Z,9.33
2019-04-12T06:30:08.671Z,4.97
2019-04-12T06:30:45.659Z,3.92
2019-04-12T06:31:19.626Z,5.35
2019-04-12T06:31:53.491Z,5.45
2019-04-12T06:32:27.211Z,4.53
2019-04-12T06:33:01.259Z,5.53
2019-04-12T06:33:35.135Z,5.80
2019-04-12T06:34:09.726Z,6.95
2019-04-12T06:34:43.869Z,9.88
2019-04-12T06:35:17.865Z,4.72
2019-04-12T06:35:52.454Z,6.08
2019-04-12T06:36:26.183Z,5.95
2019-04-12T06:36:59.769Z,4.60
2019-04-12T06:37:34.171Z,6.03
2019-04-12T06:38:07.954Z,5.85
2019-04-12T06:38:41.962Z,5.80
2019-04-12T06:39:15.868Z,6.25
2019-04-12T06:39:50.691Z,5.40
2019-04-12T06:40:24.916Z,5.85
2019-04-12T06:40:59.311Z,4.65
2019-04-12T06:41:33.189Z,5.37
2019-04-12T06:42:07.580Z,6.45
2019-04-12T06:42:41.302Z,6.60
2019-04-12T06:43:15.486Z,5.97
2019-04-12T06:43:50.226Z,7.87
2019-04-12T06:44:24.148Z,5.00
2019-04-12T06:44:58.238Z,7.62
2019-04-12T06:45:32.042Z,5.62
2019-04-12T06:46:07.925Z,4.60
2019-04-12T06:46:42.082Z,10.63
2019-04-12T06:47:16.151Z,4.95
2019-04-12T06:47:50.097Z,5.72
2019-04-12T06:48:23.963Z,5.55
2019-04-12T06:48:58.483Z,7.08
2019-04-12T06:49:32.241Z,5.12
2019-04-12T06:50:07.353Z,8.10
2019-04-12T06:50:46.735Z,4.97
2019-04-12T06:51:21.432Z,12.80
2019-04-12T06:51:55.827Z,6.92
2019-04-12T06:52:29.754Z,7.50
2019-04-12T06:53:03.335Z,6.30
2019-04-12T06:53:37.188Z,6.92
2019-04-12T06:54:11.351Z,5.78
2019-04-12T06:54:45.074Z,6.12
2019-04-12T06:55:21.028Z,6.95
2019-04-12T06:56:10.064Z,4.92
2019-04-12T06:57:07.154Z,5.12
2019-04-12T06:57:41.615Z,5.45
2019-04-12T06:58:16.428Z,6.33
2019-04-12T06:58:50.419Z,6.60
2019-04-12T06:59:26.297Z,5.30
2019-04-12T07:00:19.732Z,5.22
2019-04-12T07:01:08.160Z,5.83
2019-04-12T07:02:04.272Z,4.58
2019-04-12T07:02:45.683Z,5.37
2019-04-12T07:03:38.932Z,5.50
2019-04-12T07:04:26.586Z,5.97
2019-04-12T07:05:00.024Z,5.97
2019-04-12T07:05:35.317Z,6.15
2019-04-12T07:06:10.223Z,6.90
2019-04-12T07:06:45.919Z,8.43
2019-04-12T07:07:21.183Z,5.30
2019-04-12T07:07:56.100Z,6.25
2019-04-12T07:08:38.547Z,6.53
2019-04-12T07:09:12.326Z,5.35
2019-04-12T07:09:46.683Z,4.75
2019-04-12T07:10:21.254Z,7.35
2019-04-12T07:10:54.743Z,5.60
2019-04-12T07:11:28.423Z,7.75
2019-04-12T07:12:02.375Z,16.02
2019-04-12T07:12:38.842Z,7.35
2019-04-12T07:13:12.482Z,7.80
2019-04-12T07:13:49.685Z,6.50
2019-04-12T07:14:23.544Z,4.55
2019-04-12T07:21:16.959Z,6.58
2019-04-12T07:21:50.763Z,5.75
2019-04-12T07:22:24.502Z,8.03
2019-04-12T07:22:59.269Z,6.70
2019-04-12T07:23:33.057Z,6.70
2019-04-12T07:24:06.573Z,7.70
2019-04-12T07:24:40.233Z,10.78
2019-04-12T07:25:13.717Z,7.30
2019-04-12T07:25:47.186Z,8.40
2019-04-12T07:26:20.673Z,6.53
2019-04-12T07:26:54.182Z,10.32
2019-04-12T07:27:34.306Z,8.60
2019-04-12T07:28:02.982Z,6.28
2019-04-12T07:28:36.584Z,6.22
2019-04-12T07:29:10.112Z,7.30
2019-04-12T07:29:43.595Z,7.08
2019-04-12T07:30:17.348Z,5.90
2019-04-12T07:30:56.697Z,5.10
2019-04-12T07:31:26.223Z,9.48
2019-04-12T07:31:59.725Z,8.83
2019-04-12T07:32:33.210Z,7.15
2019-04-12T07:33:06.714Z,9.38
2019-04-12T07:33:42.704Z,6.28
2019-04-12T07:34:16.257Z,4.65
2019-04-12T07:34:49.823Z,7.22
2019-04-12T07:35:23.333Z,5.95
2019-04-12T07:35:56.951Z,5.20
2019-04-12T07:36:30.558Z,6.97
2019-04-12T07:37:04.078Z,5.05
2019-04-12T07:37:37.571Z,9.25
2019-04-12T07:38:11.147Z,6.95
2019-04-12T07:38:44.906Z,10.45
2019-04-12T07:39:18.432Z,5.37
2019-04-12T07:39:52.916Z,6.17
2019-04-12T07:40:26.839Z,5.33
2019-04-12T07:41:01.010Z,4.70
2019-04-12T07:41:35.184Z,5.45
2019-04-12T07:42:08.918Z,8.93
2019-04-12T07:42:42.666Z,5.35
2019-04-12T07:43:16.706Z,9.58
2019-04-12T07:43:50.673Z,7.28
2019-04-12T07:44:24.520Z,6.10
2019-04-12T07:44:58.410Z,5.78
2019-04-12T07:45:32.182Z,7.00
2019-04-12T07:46:05.967Z,5.10
2019-04-12T07:46:39.620Z,9.98
2019-04-12T07:47:13.270Z,5.17
2019-04-12T07:47:47.075Z,7.50
2019-04-12T07:48:20.990Z,7.85
2019-04-12T07:48:54.883Z,6.60
2019-04-12T07:49:28.778Z,6.65
2019-04-12T07:50:06.992Z,5.55
2019-04-12T07:50:52.078Z,4.55
2019-04-12T07:51:43.381Z,6.70
2019-04-12T07:52:21.797Z,6.65